Time;durP1;ratioP1;P1;durP2;ratioP2;P2;SDS_P1;SDS_P2;PMS_P1;PMS_P2;Temp;Humidity;BMP_temperature;BMP_pressure;BME280_temperature;BME280_humidity;BME280_pressure;Samples;Min_cycle;Max_cycle;Signal;HPM_P1;HPM_P2
2022/03/02 03:24:06;;;;;;;44.97;25.58;;;;;;;;;;6176971;22;20021;31
2022/03/02 04:59:40;;;;;;;48.38;26.60;;;;;;;;;;6177794;22;20028;-95
2022/03/02 07:29:56;;;;;;;46.78;25.98;;;;;;;;;;6185138;22;20029;-92
2022/03/02 07:39:57;;;;;;;47.78;27.30;;;;;;;;;;6196352;22;20024;-94
2022/03/02 07:42:26;;;;;;;46.85;27.38;;;;;;;;;;6168061;23;20017;-94
2022/03/02 07:44:56;;;;;;;41.03;24.40;;;;;;;;;;6169988;23;20012;-93
2022/03/02 07:47:22;;;;;;;50.35;25.83;;;;;;;;;;6168175;23;20043;-94
2022/03/02 07:49:48;;;;;;;53.63;26.98;;;;;;;;;;6168748;23;20043;-95
2022/03/02 07:52:15;;;;;;;46.88;27.00;;;;;;;;;;6167789;23;20013;-93
2022/03/02 07:54:47;;;;;;;55.28;28.90;;;;;;;;;;6167107;23;20008;-95
2022/03/02 07:57:16;;;;;;;44.30;26.45;;;;;;;;;;6167275;23;20059;-95
2022/03/02 07:59:44;;;;;;;47.42;25.67;;;;;;;;;;6166919;23;20115;-93
2022/03/02 08:02:11;;;;;;;52.60;27.77;;;;;;;;;;6166862;23;20017;-94
2022/03/02 08:08:05;;;;;;;49.80;29.27;;;;;;;;;;6215425;22;20020;-94
2022/03/02 08:10:31;;;;;;;46.20;27.65;;;;;;;;;;6168402;23;20017;-94
2022/03/02 08:13:01;;;;;;;52.75;28.25;;;;;;;;;;6168860;22;20035;-96
2022/03/02 08:15:29;;;;;;;50.15;27.20;;;;;;;;;;6198571;23;20027;-95
2022/03/02 08:17:58;;;;;;;46.53;26.60;;;;;;;;;;6199565;23;20070;-96
2022/03/02 08:20:24;;;;;;;54.58;28.35;;;;;;;;;;6201273;23;20016;-96
2022/03/02 08:25:34;;;;;;;;;;;;;;;;;;;;;
2022/03/02 08:28:21;;;;;;;46.75;27.75;;;;;;;;;;6208614;22;20032;-96
2022/03/02 08:30:56;;;;;;;47.85;27.27;;;;;;;;;;6164950;22;20021;-95
2022/03/02 08:36:41;;;;;;;45.35;26.75;;;;;;;;;;6103057;23;20028;-95
2022/03/02 08:39:41;;;;;;;55.38;30.02;;;;;;;;;;6079746;23;20014;-95
2022/03/02 08:42:33;;;;;;;50.38;27.48;;;;;;;;;;6103818;23;20022;-95
2022/03/02 08:45:27;;;;;;;;;;;;;;;;;;;;;
2022/03/02 08:51:29;;;;;;;52.83;28.85;;;;;;;;;;6218808;22;20029;-95
2022/03/02 08:53:58;;;;;;;46.65;27.40;;;;;;;;;;6169341;23;20021;-94
2022/03/02 08:56:25;;;;;;;48.90;29.00;;;;;;;;;;6168899;23;20013;-92
2022/03/02 08:58:52;;;;;;;51.58;29.02;;;;;;;;;;6170164;23;20020;-92
2022/03/02 09:01:19;;;;;;;47.88;26.80;;;;;;;;;;6175605;23;20025;-92
2022/03/02 09:03:48;;;;;;;48.65;27.80;;;;;;;;;;6136227;23;20104;-92
2022/03/02 09:06:16;;;;;;;46.55;27.25;;;;;;;;;;6139765;23;20025;-95
2022/03/02 09:08:45;;;;;;;53.15;27.50;;;;;;;;;;6140990;23;20017;-95
2022/03/02 09:11:12;;;;;;;43.60;26.85;;;;;;;;;;6133288;23;20028;-94
2022/03/02 09:26:06;;;;;;;51.38;28.15;;;;;;;;;;6183356;23;20111;-94
2022/03/02 09:29:10;;;;;;;48.53;26.65;;;5.00;99.90;;;;;;6163448;22;20056;-92
2022/03/02 09:32:09;;;;;;;51.85;26.73;;;4.80;99.90;;;;;;6138753;23;20032;31
2022/03/02 09:34:52;;;;;;;49.20;27.40;;;;;;;;;;6181488;23;20084;-93
2022/03/02 09:40:43;;;;;;;50.40;25.27;;;;;;;;;;6188709;23;20107;-93
2022/03/02 09:43:40;;;;;;;45.60;24.70;;;;;;;;;;6168813;23;20093;-94
2022/03/02 09:46:18;;;;;;;40.05;22.45;;;;;;;;;;6192358;23;20035;-95
2022/03/02 10:02:42;;;;;;;43.95;24.20;;;;;;;;;;6182491;23;20025;-93
2022/03/02 10:05:10;;;;;;;48.20;24.25;;;;;;;;;;6178868;23;20048;-91
2022/03/02 10:07:57;;;;;;;39.60;24.25;;;;;;;;;;6166612;23;20016;-93
2022/03/02 10:10:24;;;;;;;38.97;23.55;;;;;;;;;;6187405;22;20025;-91
2022/03/02 10:13:03;;;;;;;43.65;23.40;;;;;;;;;;6167585;22;20028;-89
2022/03/02 10:15:30;;;;;;;44.40;24.73;;;;;;;;;;6170581;22;20044;-89
2022/03/02 10:49:05;;;;;;;43.33;24.73;;;;;;;;;;6197167;23;20033;-95
2022/03/02 10:51:56;;;;;;;44.95;22.63;;;;;;;;;;6188439;23;20036;-93
2022/03/02 10:54:35;;;;;;;37.72;21.42;;;;;;;;;;6143566;23;20035;31
2022/03/02 10:57:06;;;;;;;43.55;22.67;;;;;;;;;;6152401;23;20034;-88
2022/03/02 10:59:36;;;;;;;39.35;25.00;;;;;;;;;;6162191;23;20084;-89
2022/03/02 11:02:03;;;;;;;38.22;23.20;;;;;;;;;;6155995;23;20120;-89
2022/03/02 11:04:30;;;;;;;33.35;20.73;;;;;;;;;;6163733;23;20115;-90
2022/03/02 11:07:06;;;;;;;40.90;22.58;;;;;;;;;;6151491;23;20025;-94
2022/03/02 11:09:34;;;;;;;44.80;22.73;;;;;;;;;;6151869;22;20259;-92
2022/03/02 11:12:06;;;;;;;42.28;22.30;;;;;;;;;;6152614;23;20036;-90
2022/03/02 11:14:40;;;;;;;36.00;20.85;;;;;;;;;;6185712;23;20024;-92
2022/03/02 11:20:30;;;;;;;35.17;21.55;;;;;;;;;;6205114;22;20439;-89
2022/03/02 11:22:59;;;;;;;36.75;21.52;;;;;;;;;;6202902;22;20032;-89
2022/03/02 11:26:04;;;;;;;36.80;20.58;;;;;;;;;;6155094;22;20021;-92
2022/03/02 11:29:18;;;;;;;41.22;23.67;;;7.00;99.90;;;;;;6149942;22;20354;-94
2022/03/02 11:35:08;;;;;;;34.28;21.30;;;7.10;99.90;;;;;;6206503;23;21017;-93
2022/03/02 11:37:56;;;;;;;37.38;20.80;;;;;;;;;;6163600;23;20033;31
2022/03/02 11:40:48;;;;;;;35.15;20.27;;;;;;;;;;6183082;23;20450;-93
2022/03/02 12:34:27;;;;;;;28.35;18.10;;;;;;;;;;6222332;22;20023;-93
2022/03/02 12:37:25;;;;;;;31.30;17.75;;;;;;;;;;6148422;23;20021;-94
2022/03/02 12:40:19;;;;;;;25.88;15.15;;;;;;;;;;6196844;23;20397;-94
2022/03/02 12:46:24;;;;;;;26.77;15.77;;;;;;;;;;6148876;23;20080;-92
2022/03/02 12:48:51;;;;;;;27.33;15.90;;;;;;;;;;6159869;23;20032;-89
2022/03/02 12:51:18;;;;;;;27.90;16.00;;;;;;;;;;6169172;22;20064;-90
2022/03/02 12:53:47;;;;;;;28.00;16.52;;;;;;;;;;6124081;23;20020;-92
2022/03/02 12:59:50;;;;;;;26.33;16.47;;;;;;;;;;6140863;23;20898;31
2022/03/02 13:02:22;;;;;;;29.95;16.88;;;;;;;;;;6131832;23;20238;-93
2022/03/02 13:04:48;;;;;;;26.73;17.02;;;;;;;;;;6164062;23;20021;-92
2022/03/02 13:07:19;;;;;;;27.98;15.77;;;;;;;;;;6164012;23;20078;-93
2022/03/02 13:09:49;;;;;;;24.63;15.70;;;;;;;;;;6174372;23;20080;-92
2022/03/02 13:12:29;;;;;;;26.05;16.30;;;;;;;;;;6156890;23;20021;-92
2022/03/02 13:15:12;;;;;;;30.38;17.15;;;;;;;;;;6169989;22;20098;-91
2022/03/02 13:17:39;;;;;;;27.67;16.83;;;;;;;;;;6172509;23;20104;-92
2022/03/02 13:23:13;;;;;;;22.08;15.07;;;;;;;;;;6194737;22;20025;-88
2022/03/02 13:26:23;;;;;;;30.13;17.02;;;;;;;;;;6168610;23;20032;-90
2022/03/02 13:29:20;;;;;;;29.25;16.45;;;;;;;;;;6148114;23;20026;-90
2022/03/02 13:32:13;;;;;;;28.33;15.52;;;;;;;;;;6141723;23;20032;-91
2022/03/02 13:35:16;;;;;;;31.45;17.85;;;8.90;99.90;;;;;;6150793;23;20247;31
2022/03/02 13:40:55;;;;;;;30.80;17.55;;;;;;;;;;6211938;22;20025;-89
2022/03/02 13:46:14;;;;;;;26.67;17.77;;;;;;;;;;6217602;23;20449;-91
2022/03/02 13:48:48;;;;;;;25.55;15.45;;;;;;;;;;6183815;23;20499;-91
2022/03/02 13:51:19;;;;;;;30.13;17.65;;;;;;;;;;6161177;22;20043;-92
2022/03/02 13:53:55;;;;;;;26.20;16.23;;;;;;;;;;6183610;23;20033;-90
2022/03/02 14:05:50;;;;;;;23.98;16.90;;;;;;;;;;6219475;22;20044;-90
2022/03/02 14:11:44;;;;;;;28.27;17.27;;;;;;;;;;6213439;22;20028;-91
2022/03/02 14:14:22;;;;;;;28.95;17.15;;;;;;;;;;6171527;22;21126;31
2022/03/02 14:17:21;;;;;;;26.23;17.20;;;;;;;;;;6161956;23;20025;-90
2022/03/02 14:23:33;;;;;;;27.27;17.10;;;;;;;;;;6186394;22;20017;31
2022/03/02 14:26:08;;;;;;;27.55;17.17;;;;;;;;;;6168180;23;20063;-91
2022/03/02 14:28:37;;;;;;;;;;;;;;;;;;6166330;22;20024;-94
2022/03/02 14:31:16;;;;;;;30.50;17.42;;;;;;;;;;6182312;23;19930;-91
2022/03/02 15:42:44;;;;;;;27.00;17.63;;;;;;;;;;6192257;23;20040;-90
2022/03/02 15:54:53;;;;;;;28.50;18.00;;;;;;;;;;6185286;22;20048;-92
2022/03/02 16:02:41;;;;;;;29.52;18.27;;;;;;;;;;6236262;22;20103;-91
2022/03/02 16:07:40;;;;;;;33.88;19.48;;;;;;;;;;6187451;23;20029;-92
2022/03/02 16:10:11;;;;;;;27.15;17.98;;;;;;;;;;6138892;23;20028;-93
2022/03/02 16:12:40;;;;;;;25.75;17.85;;;;;;;;;;6137865;23;20017;-92
2022/03/02 16:15:06;;;;;;;30.67;19.05;;;;;;;;;;6137337;23;20044;-92
2022/03/02 16:17:41;;;;;;;33.58;18.48;;;;;;;;;;6137891;23;20362;-93
2022/03/02 16:20:11;;;;;;;29.40;18.60;;;;;;;;;;6140689;23;20035;-93
2022/03/02 16:22:38;;;;;;;32.15;18.88;;;;;;;;;;6157493;22;20076;-93
2022/03/02 16:34:39;;;;;;;42.47;25.85;;;;;;;;;;6218485;23;20055;-96
2022/03/02 16:39:50;;;;;;;41.03;25.65;;;;;;;;;;6216983;23;20031;-94
2022/03/02 16:42:17;;;;;;;43.53;25.58;;;;;;;;;;6167812;23;20155;-95
2022/03/02 16:44:51;;;;;;;54.90;27.55;;;;;;;;;;6169271;23;20023;-94
2022/03/02 16:47:21;;;;;;;43.20;25.73;;;;;;;;;;6167102;23;20096;-94
2022/03/02 16:49:47;;;;;;;42.95;25.83;;;;;;;;;;6167402;23;20458;-96
2022/03/02 16:52:14;;;;;;;44.50;27.00;;;;;;;;;;6168380;23;20021;-94
2022/03/02 16:54:40;;;;;;;42.53;25.73;;;;;;;;;;6167035;23;20450;-95
2022/03/02 16:57:06;;;;;;;51.05;26.90;;;;;;;;;;6176408;23;20385;-87
2022/03/02 16:59:42;;;;;;;46.15;26.65;;;;;;;;;;6188688;23;20429;31
2022/03/02 17:02:08;;;;;;;49.83;27.20;;;;;;;;;;6143790;23;20027;-87
2022/03/02 17:04:44;;;;;;;45.55;25.67;;;;;;;;;;6165702;23;20021;-93
2022/03/02 17:07:10;;;;;;;47.80;27.10;;;;;;;;;;6167587;23;20108;-90
2022/03/02 17:09:44;;;;;;;44.95;27.38;;;;;;;;;;6172745;23;20017;-88
2022/03/02 17:12:10;;;;;;;47.47;27.67;;;;;;;;;;6166668;23;20438;-89
2022/03/02 17:14:37;;;;;;;49.13;27.45;;;;;;;;;;6168114;23;20016;-93
2022/03/02 17:17:11;;;;;;;47.45;26.77;;;;;;;;;;6169630;23;20461;-87
2022/03/02 17:19:37;;;;;;;49.17;26.58;;;;;;;;;;6171697;23;20449;-87
2022/03/02 17:22:04;;;;;;;54.42;28.23;;;;;;;;;;6164464;23;20028;-91
2022/03/02 17:24:30;;;;;;;50.35;28.77;;;;;;;;;;6163436;23;20024;-91
2022/03/02 17:26:56;;;;;;;49.75;28.70;;;;;;;;;;6168235;22;20024;-90
2022/03/02 17:29:23;;;;;;;48.63;26.77;;;;;;;;;;6141341;23;20072;-92
2022/03/02 17:31:49;;;;;;;47.58;28.10;;;;;;;;;;6138371;23;20017;-91
2022/03/02 17:34:16;;;;;;;49.00;26.63;;;;;;;;;;6174489;23;20021;-92
2022/03/02 17:40:07;;;;;;;45.22;26.45;;;;;;;;;;6220368;23;20048;-92
2022/03/02 17:42:34;;;;;;;48.00;27.73;;;;;;;;;;6193451;23;20031;-92
2022/03/02 17:45:01;;;;;;;49.10;25.52;;;;;;;;;;6194614;22;20023;-90
2022/03/02 17:47:27;;;;;;;51.83;27.83;;;;;;;;;;6192500;23;20349;-88
2022/03/02 17:49:54;;;;;;;48.53;27.92;;;;;;;;;;6193020;23;20051;-92
2022/03/02 17:52:20;;;;;;;54.42;26.77;;;;;;;;;;6192505;23;20021;-90
2022/03/02 17:54:46;;;;;;;56.45;26.60;;;;;;;;;;6192685;23;20013;-90
2022/03/02 17:57:12;;;;;;;47.03;25.85;;;;;;;;;;6193142;23;20101;-88
2022/03/02 17:59:39;;;;;;;51.15;28.60;;;;;;;;;;6192734;23;20068;-89
2022/03/02 18:02:07;;;;;;;47.97;26.92;;;;;;;;;;6194049;23;20070;-94
2022/03/02 18:04:33;;;;;;;48.80;27.08;;;;;;;;;;6193725;23;20024;-93
2022/03/02 18:06:59;;;;;;;50.72;27.23;;;;;;;;;;6190786;23;20034;-93
2022/03/02 18:09:26;;;;;;;45.95;26.33;;;;;;;;;;6169073;23;20021;-93
2022/03/02 18:11:53;;;;;;;50.08;27.98;;;;;;;;;;6170237;23;20020;-94
2022/03/02 18:17:53;;;;;;;52.63;27.60;;;;;;;;;;6190588;23;20032;-93
2022/03/02 18:20:19;;;;;;;52.13;28.85;;;;;;;;;;6141369;23;20395;-93
2022/03/02 18:22:46;;;;;;;51.05;26.58;;;;;;;;;;6139994;23;20021;-93
2022/03/02 20:07:45;;;;;;;48.08;26.70;;;;;;;;;;6138377;23;1283821;-90
2022/03/02 20:10:34;;;;;;;50.95;25.25;;;;;;;;;;6160721;23;20048;-94
2022/03/02 20:13:04;;;;;;;56.72;26.45;;;;;;;;;;6181275;23;20492;-89
2022/03/02 20:18:05;;;;;;;56.70;28.63;;;;;;;;;;6187606;22;20025;-88
2022/03/02 20:21:04;;;;;;;50.72;27.95;;;;;;;;;;6171279;23;20339;-89
2022/03/02 20:23:33;;;;;;;51.75;27.73;;;;;;;;;;6172627;23;20020;-88
2022/03/02 20:26:00;;;;;;;50.08;26.33;;;;;;;;;;6168477;23;20024;-89
